Slave Lake Airport
CYZH : now visible

Airfield :











YOU CAN JOIN US ON...

 
LOGIN :

Register | Disclaimer

   EN    FR    IT 

 









Legend :    VFR   Marginal VFR   IFR   Intensive IFR   Very Intensive IFR
Visi :
Ceiling :
>= 8 km
>= 3000ft
5 to 8 km
1000 to 3000 ft
1500m to 5 km
500 to 1000 ft
800 to 1500m
200 to 500 ft
< 800m
< 200 ft
Symbols :   Thunderstorms  Fog  Heavy snow  Heavy precipitations  Wind > 20 kt






- Airport Elevation : 1912 ft
- IATA code : YZH


CYZH - Slave Lake

CURRENT METAR :
  • 220700Z AUTO 29005KT 9SM FEW240 01/M02 A2964 RMK SLP063

EXPIRED METARs :
  • 220600Z AUTO 19002KT 9SM CLR 01/M03 A2964 RMK SLP066
  • 220500Z AUTO 08003KT 050V120 9SM BKN240 03/M03 A2964 RMK SLP067
  • 220400Z AUTO 31008KT 9SM BKN210 07/M03 A2964 RMK SLP066

TAF TAF CYZH
Valid from the 22 at 07:00 until the 22 at 19:00 UTC


220638Z 2207/2219 VRB03KT P6SM BKN240
FM221200 27015G25KT P6SM BKN080
TEMPO 2212/2215 P6SM -SHRA BKN040
BECMG 2215/2217 28020G30KT RMK FCST BASED ON AUTO OBS. NXT FCST BY 221300Z



MET'MAP, your aeronautical weather chart ! - Copyright ORBIFLY December 2007 - Disclaimer

ORBIFLY MET'MAP TEAM :

Programming & Development : Alexandra Zaïnal
Concept & Development : Baudouin d'Aumeries
Co-Development & Prog : Marc-Olivier Méhu
Technical & hardware support : Manuel Goepfert

Contact : metmap@orbifly.com




SOURCES & CREDITS :

   NOAA       Earth
Advisory